KTBR/TBR METAR and TAF weather

Enter ICAO airport designator
Station Type Date Time Source
KTBR METAR 2019/02/21 15:35 UTC NOAA

KTBR 211535Z AUTO 00000KT 5SM BR OVC002 16/15 A3018 RMK AO2 T01570154


Station Type Date Time Source
KTBR Decoded METAR 2019/02/21 15:35 UTC NOAA

Statesboro, Statesboro-Bulloch County Airport, GA, United States (KTBR) 32-28-59N 081-44-14W
Feb 21, 2019 - 10:35 AM EST / 2019.02.21 1535 UTC
Wind: Calm:0
Visibility: 5 mile(s):0
Sky conditions: overcast
Weather: mist
Temperature: 60.3 F (15.7 C)
Dew Point: 59.7 F (15.4 C)
Relative Humidity: 98%
Pressure (altimeter): 30.18 in. Hg (1022 hPa)
ob: KTBR 211535Z AUTO 00000KT 5SM BR OVC002 16/15 A3018 RMK AO2 T01570154
cycle: 15

Station Type Date Time Source
KTBR TAF UTC NOAA

Error!


Example: see airport list